sensor_id;sensor_type;location;lat;lon;timestamp;temperature;humidity
70734;DHT22;58320;48.804;9.252;2023-05-07T00:00:03;14.10;78.30
70734;DHT22;58320;48.804;9.252;2023-05-07T00:02:33;14.10;78.30
70734;DHT22;58320;48.804;9.252;2023-05-07T00:04:59;14.10;78.50
70734;DHT22;58320;48.804;9.252;2023-05-07T00:07:25;14.10;78.60
70734;DHT22;58320;48.804;9.252;2023-05-07T00:09:50;14.00;79.00
70734;DHT22;58320;48.804;9.252;2023-05-07T00:12:16;14.00;79.10
70734;DHT22;58320;48.804;9.252;2023-05-07T00:14:42;14.00;79.20
70734;DHT22;58320;48.804;9.252;2023-05-07T00:17:08;13.90;79.20
70734;DHT22;58320;48.804;9.252;2023-05-07T00:19:33;13.90;79.10
70734;DHT22;58320;48.804;9.252;2023-05-07T00:21:59;13.80;79.10
70734;DHT22;58320;48.804;9.252;2023-05-07T00:24:25;13.80;79.10
70734;DHT22;58320;48.804;9.252;2023-05-07T00:26:51;13.80;79.30
70734;DHT22;58320;48.804;9.252;2023-05-07T00:29:18;13.80;79.60
70734;DHT22;58320;48.804;9.252;2023-05-07T00:31:43;13.70;79.60
70734;DHT22;58320;48.804;9.252;2023-05-07T00:34:09;13.70;79.80
70734;DHT22;58320;48.804;9.252;2023-05-07T00:36:35;13.60;80.00
70734;DHT22;58320;48.804;9.252;2023-05-07T00:39:01;13.60;80.20
70734;DHT22;58320;48.804;9.252;2023-05-07T00:41:29;13.60;80.50
70734;DHT22;58320;48.804;9.252;2023-05-07T00:43:56;13.60;80.30
70734;DHT22;58320;48.804;9.252;2023-05-07T00:46:22;13.60;80.20
70734;DHT22;58320;48.804;9.252;2023-05-07T00:48:50;13.60;80.20
70734;DHT22;58320;48.804;9.252;2023-05-07T00:51:17;13.60;80.10
70734;DHT22;58320;48.804;9.252;2023-05-07T00:53:43;13.60;79.90
70734;DHT22;58320;48.804;9.252;2023-05-07T00:56:10;13.60;80.60
70734;DHT22;58320;48.804;9.252;2023-05-07T00:58:36;13.50;80.30
70734;DHT22;58320;48.804;9.252;2023-05-07T01:01:02;13.50;80.50
70734;DHT22;58320;48.804;9.252;2023-05-07T01:03:28;13.40;80.90
70734;DHT22;58320;48.804;9.252;2023-05-07T01:05:55;13.30;81.30
70734;DHT22;58320;48.804;9.252;2023-05-07T01:08:23;13.20;81.70
70734;DHT22;58320;48.804;9.252;2023-05-07T01:10:52;13.20;82.80
70734;DHT22;58320;48.804;9.252;2023-05-07T01:13:19;13.20;82.50
70734;DHT22;58320;48.804;9.252;2023-05-07T01:15:44;13.10;82.50
70734;DHT22;58320;48.804;9.252;2023-05-07T01:18:10;13.10;82.40
70734;DHT22;58320;48.804;9.252;2023-05-07T01:20:36;13.10;82.60
70734;DHT22;58320;48.804;9.252;2023-05-07T01:23:03;13.10;82.50
70734;DHT22;58320;48.804;9.252;2023-05-07T01:25:29;13.10;82.50
70734;DHT22;58320;48.804;9.252;2023-05-07T01:27:55;13.00;82.70
70734;DHT22;58320;48.804;9.252;2023-05-07T01:30:22;13.00;82.70
70734;DHT22;58320;48.804;9.252;2023-05-07T01:32:51;13.00;82.80
70734;DHT22;58320;48.804;9.252;2023-05-07T01:35:26;13.00;82.80
70734;DHT22;58320;48.804;9.252;2023-05-07T01:37:54;13.00;82.70
70734;DHT22;58320;48.804;9.252;2023-05-07T01:40:20;12.90;82.80
70734;DHT22;58320;48.804;9.252;2023-05-07T01:42:47;12.90;83.10
70734;DHT22;58320;48.804;9.252;2023-05-07T01:45:13;12.90;83.30
70734;DHT22;58320;48.804;9.252;2023-05-07T01:47:39;12.90;83.40
70734;DHT22;58320;48.804;9.252;2023-05-07T01:50:06;12.90;83.20
70734;DHT22;58320;48.804;9.252;2023-05-07T01:52:34;12.90;83.20
70734;DHT22;58320;48.804;9.252;2023-05-07T01:55:00;12.90;83.30
70734;DHT22;58320;48.804;9.252;2023-05-07T01:57:26;12.90;83.80
70734;DHT22;58320;48.804;9.252;2023-05-07T01:59:51;12.90;84.10
70734;DHT22;58320;48.804;9.252;2023-05-07T02:02:17;12.90;84.40
70734;DHT22;58320;48.804;9.252;2023-05-07T02:04:43;12.90;84.40
70734;DHT22;58320;48.804;9.252;2023-05-07T02:07:09;12.90;84.20
70734;DHT22;58320;48.804;9.252;2023-05-07T02:09:35;12.90;84.50
70734;DHT22;58320;48.804;9.252;2023-05-07T02:12:01;12.90;84.60
70734;DHT22;58320;48.804;9.252;2023-05-07T02:14:26;12.80;84.60
70734;DHT22;58320;48.804;9.252;2023-05-07T02:16:52;12.70;84.70
70734;DHT22;58320;48.804;9.252;2023-05-07T02:19:18;12.70;85.20
70734;DHT22;58320;48.804;9.252;2023-05-07T02:21:46;12.70;85.50
70734;DHT22;58320;48.804;9.252;2023-05-07T02:24:13;12.70;85.70
70734;DHT22;58320;48.804;9.252;2023-05-07T02:26:40;12.60;85.70
70734;DHT22;58320;48.804;9.252;2023-05-07T02:29:06;12.60;85.90
70734;DHT22;58320;48.804;9.252;2023-05-07T02:31:32;12.60;86.00
70734;DHT22;58320;48.804;9.252;2023-05-07T02:33:59;12.60;86.20
70734;DHT22;58320;48.804;9.252;2023-05-07T02:36:26;12.60;86.30
70734;DHT22;58320;48.804;9.252;2023-05-07T02:38:54;12.50;86.40
70734;DHT22;58320;48.804;9.252;2023-05-07T02:41:20;12.50;86.40
70734;DHT22;58320;48.804;9.252;2023-05-07T02:43:46;12.50;86.60
70734;DHT22;58320;48.804;9.252;2023-05-07T02:46:11;12.50;86.70
70734;DHT22;58320;48.804;9.252;2023-05-07T02:48:37;12.40;86.80
70734;DHT22;58320;48.804;9.252;2023-05-07T02:51:04;12.30;87.10
70734;DHT22;58320;48.804;9.252;2023-05-07T02:53:31;12.30;87.20
70734;DHT22;58320;48.804;9.252;2023-05-07T02:55:58;12.30;87.20
70734;DHT22;58320;48.804;9.252;2023-05-07T02:58:25;12.20;87.40
70734;DHT22;58320;48.804;9.252;2023-05-07T03:00:51;12.20;87.60
70734;DHT22;58320;48.804;9.252;2023-05-07T03:03:17;12.20;87.90
70734;DHT22;58320;48.804;9.252;2023-05-07T03:05:43;12.20;88.40
70734;DHT22;58320;48.804;9.252;2023-05-07T03:08:09;12.10;88.60
70734;DHT22;58320;48.804;9.252;2023-05-07T03:10:36;12.10;88.40
70734;DHT22;58320;48.804;9.252;2023-05-07T03:13:02;12.00;88.50
70734;DHT22;58320;48.804;9.252;2023-05-07T03:15:28;12.00;88.90
70734;DHT22;58320;48.804;9.252;2023-05-07T03:17:55;12.00;89.10
70734;DHT22;58320;48.804;9.252;2023-05-07T03:20:20;11.90;89.50
70734;DHT22;58320;48.804;9.252;2023-05-07T03:22:46;11.90;89.80
70734;DHT22;58320;48.804;9.252;2023-05-07T03:25:12;11.80;90.30
70734;DHT22;58320;48.804;9.252;2023-05-07T03:27:39;11.80;90.80
70734;DHT22;58320;48.804;9.252;2023-05-07T03:30:05;11.80;91.10
70734;DHT22;58320;48.804;9.252;2023-05-07T03:32:33;11.80;91.30
70734;DHT22;58320;48.804;9.252;2023-05-07T03:34:58;11.70;91.40
70734;DHT22;58320;48.804;9.252;2023-05-07T03:37:24;11.70;91.90
70734;DHT22;58320;48.804;9.252;2023-05-07T03:39:50;11.70;92.30
70734;DHT22;58320;48.804;9.252;2023-05-07T03:42:16;11.70;92.90
70734;DHT22;58320;48.804;9.252;2023-05-07T03:44:42;11.70;93.40
70734;DHT22;58320;48.804;9.252;2023-05-07T03:47:07;11.80;92.70
70734;DHT22;58320;48.804;9.252;2023-05-07T03:49:33;11.80;92.10
70734;DHT22;58320;48.804;9.252;2023-05-07T03:51:59;11.80;92.00
70734;DHT22;58320;48.804;9.252;2023-05-07T03:54:25;11.80;91.40
70734;DHT22;58320;48.804;9.252;2023-05-07T03:56:50;11.70;91.00
70734;DHT22;58320;48.804;9.252;2023-05-07T03:59:16;11.70;91.10
70734;DHT22;58320;48.804;9.252;2023-05-07T04:01:42;11.70;91.10
70734;DHT22;58320;48.804;9.252;2023-05-07T04:04:08;11.70;91.10
70734;DHT22;58320;48.804;9.252;2023-05-07T04:06:33;11.70;91.20
70734;DHT22;58320;48.804;9.252;2023-05-07T04:08:59;11.70;91.00
70734;DHT22;58320;48.804;9.252;2023-05-07T04:11:25;11.60;90.90
70734;DHT22;58320;48.804;9.252;2023-05-07T04:13:51;11.60;91.10
70734;DHT22;58320;48.804;9.252;2023-05-07T04:16:16;11.60;91.20
70734;DHT22;58320;48.804;9.252;2023-05-07T04:18:42;11.60;91.30
70734;DHT22;58320;48.804;9.252;2023-05-07T04:21:15;11.60;91.20
70734;DHT22;58320;48.804;9.252;2023-05-07T04:23:42;11.60;91.10
70734;DHT22;58320;48.804;9.252;2023-05-07T04:26:08;11.70;91.00
70734;DHT22;58320;48.804;9.252;2023-05-07T04:28:34;11.70;91.00
70734;DHT22;58320;48.804;9.252;2023-05-07T04:31:01;11.80;90.90
70734;DHT22;58320;48.804;9.252;2023-05-07T04:33:27;11.90;90.70
70734;DHT22;58320;48.804;9.252;2023-05-07T04:35:53;12.00;90.40
70734;DHT22;58320;48.804;9.252;2023-05-07T04:38:18;12.10;90.00
70734;DHT22;58320;48.804;9.252;2023-05-07T04:40:44;12.20;89.60
70734;DHT22;58320;48.804;9.252;2023-05-07T04:43:11;12.20;89.40
70734;DHT22;58320;48.804;9.252;2023-05-07T04:45:37;12.30;88.90
70734;DHT22;58320;48.804;9.252;2023-05-07T04:48:03;12.50;88.20
70734;DHT22;58320;48.804;9.252;2023-05-07T04:50:29;12.60;87.80
70734;DHT22;58320;48.804;9.252;2023-05-07T04:52:55;12.70;87.50
70734;DHT22;58320;48.804;9.252;2023-05-07T04:55:21;12.80;86.80
70734;DHT22;58320;48.804;9.252;2023-05-07T04:57:47;12.80;86.40
70734;DHT22;58320;48.804;9.252;2023-05-07T05:00:13;12.80;86.50
70734;DHT22;58320;48.804;9.252;2023-05-07T05:02:42;12.80;86.50
70734;DHT22;58320;48.804;9.252;2023-05-07T05:05:08;12.90;86.50
70734;DHT22;58320;48.804;9.252;2023-05-07T05:07:33;12.90;86.60
70734;DHT22;58320;48.804;9.252;2023-05-07T05:09:59;13.00;86.10
70734;DHT22;58320;48.804;9.252;2023-05-07T05:12:25;13.00;86.30
70734;DHT22;58320;48.804;9.252;2023-05-07T05:14:51;13.10;86.30
70734;DHT22;58320;48.804;9.252;2023-05-07T05:17:17;13.10;85.70
70734;DHT22;58320;48.804;9.252;2023-05-07T05:19:43;13.00;85.50
70734;DHT22;58320;48.804;9.252;2023-05-07T05:22:09;13.00;85.60
70734;DHT22;58320;48.804;9.252;2023-05-07T05:24:34;13.10;85.60
70734;DHT22;58320;48.804;9.252;2023-05-07T05:27:00;13.10;85.30
70734;DHT22;58320;48.804;9.252;2023-05-07T05:29:27;13.20;85.20
70734;DHT22;58320;48.804;9.252;2023-05-07T05:31:53;13.20;84.60
70734;DHT22;58320;48.804;9.252;2023-05-07T05:34:18;13.30;84.90
70734;DHT22;58320;48.804;9.252;2023-05-07T05:36:47;13.50;84.60
70734;DHT22;58320;48.804;9.252;2023-05-07T05:39:13;13.70;84.00
70734;DHT22;58320;48.804;9.252;2023-05-07T05:41:39;14.00;82.40
70734;DHT22;58320;48.804;9.252;2023-05-07T05:44:05;14.00;80.10
70734;DHT22;58320;48.804;9.252;2023-05-07T05:46:31;14.10;80.90
70734;DHT22;58320;48.804;9.252;2023-05-07T05:48:57;14.30;80.10
70734;DHT22;58320;48.804;9.252;2023-05-07T05:51:23;14.40;78.90
70734;DHT22;58320;48.804;9.252;2023-05-07T05:53:49;14.50;78.80
70734;DHT22;58320;48.804;9.252;2023-05-07T05:56:16;14.60;78.60
70734;DHT22;58320;48.804;9.252;2023-05-07T05:58:42;14.70;77.80
70734;DHT22;58320;48.804;9.252;2023-05-07T06:01:07;14.90;77.30
70734;DHT22;58320;48.804;9.252;2023-05-07T06:03:33;15.10;76.60
70734;DHT22;58320;48.804;9.252;2023-05-07T06:05:59;15.20;75.60
70734;DHT22;58320;48.804;9.252;2023-05-07T06:08:30;15.30;76.00
70734;DHT22;58320;48.804;9.252;2023-05-07T06:10:56;15.40;75.10
70734;DHT22;58320;48.804;9.252;2023-05-07T06:13:22;15.50;74.50
70734;DHT22;58320;48.804;9.252;2023-05-07T06:15:49;15.30;75.00
70734;DHT22;58320;48.804;9.252;2023-05-07T06:18:15;15.30;74.90
70734;DHT22;58320;48.804;9.252;2023-05-07T06:20:40;15.40;74.70
70734;DHT22;58320;48.804;9.252;2023-05-07T06:23:06;15.40;74.50
70734;DHT22;58320;48.804;9.252;2023-05-07T06:25:32;15.30;74.50
70734;DHT22;58320;48.804;9.252;2023-05-07T06:27:57;15.20;75.40
70734;DHT22;58320;48.804;9.252;2023-05-07T06:30:23;15.10;75.80
70734;DHT22;58320;48.804;9.252;2023-05-07T06:32:49;15.10;76.00
70734;DHT22;58320;48.804;9.252;2023-05-07T06:35:15;15.10;76.00
70734;DHT22;58320;48.804;9.252;2023-05-07T06:37:41;15.10;75.70
70734;DHT22;58320;48.804;9.252;2023-05-07T06:40:08;15.20;76.10
70734;DHT22;58320;48.804;9.252;2023-05-07T06:42:36;15.20;76.00
70734;DHT22;58320;48.804;9.252;2023-05-07T06:45:02;15.20;76.10
70734;DHT22;58320;48.804;9.252;2023-05-07T06:47:28;15.30;75.70
70734;DHT22;58320;48.804;9.252;2023-05-07T06:49:54;15.40;75.80
70734;DHT22;58320;48.804;9.252;2023-05-07T06:52:20;15.60;75.20
70734;DHT22;58320;48.804;9.252;2023-05-07T06:54:46;15.80;74.60
70734;DHT22;58320;48.804;9.252;2023-05-07T06:57:11;16.00;73.10
70734;DHT22;58320;48.804;9.252;2023-05-07T06:59:37;16.20;72.80
70734;DHT22;58320;48.804;9.252;2023-05-07T07:02:03;16.50;71.30
70734;DHT22;58320;48.804;9.252;2023-05-07T07:04:29;16.70;67.50
70734;DHT22;58320;48.804;9.252;2023-05-07T07:06:57;17.00;67.20
70734;DHT22;58320;48.804;9.252;2023-05-07T07:09:23;17.20;67.10
70734;DHT22;58320;48.804;9.252;2023-05-07T07:11:49;17.40;66.70
70734;DHT22;58320;48.804;9.252;2023-05-07T07:14:15;17.60;66.10
70734;DHT22;58320;48.804;9.252;2023-05-07T07:16:40;17.80;65.50
70734;DHT22;58320;48.804;9.252;2023-05-07T07:19:06;17.90;65.20
70734;DHT22;58320;48.804;9.252;2023-05-07T07:21:32;18.10;63.90
70734;DHT22;58320;48.804;9.252;2023-05-07T07:23:58;18.30;63.50
70734;DHT22;58320;48.804;9.252;2023-05-07T07:26:23;18.60;63.40
70734;DHT22;58320;48.804;9.252;2023-05-07T07:28:49;18.80;63.20
70734;DHT22;58320;48.804;9.252;2023-05-07T07:31:15;19.00;62.10
70734;DHT22;58320;48.804;9.252;2023-05-07T07:33:41;19.30;62.10
70734;DHT22;58320;48.804;9.252;2023-05-07T07:36:07;19.70;61.10
70734;DHT22;58320;48.804;9.252;2023-05-07T07:38:33;19.70;59.10
70734;DHT22;58320;48.804;9.252;2023-05-07T07:41:00;19.80;59.00
70734;DHT22;58320;48.804;9.252;2023-05-07T07:43:26;20.00;58.40
70734;DHT22;58320;48.804;9.252;2023-05-07T07:45:52;20.60;56.90
70734;DHT22;58320;48.804;9.252;2023-05-07T07:48:18;21.00;56.20
70734;DHT22;58320;48.804;9.252;2023-05-07T07:50:44;21.20;55.90
70734;DHT22;58320;48.804;9.252;2023-05-07T07:53:10;21.60;54.90
70734;DHT22;58320;48.804;9.252;2023-05-07T07:55:39;21.90;55.00
70734;DHT22;58320;48.804;9.252;2023-05-07T07:58:05;22.00;53.90
70734;DHT22;58320;48.804;9.252;2023-05-07T08:00:31;21.90;54.50
70734;DHT22;58320;48.804;9.252;2023-05-07T08:02:57;22.00;55.70
70734;DHT22;58320;48.804;9.252;2023-05-07T08:05:23;22.30;55.10
70734;DHT22;58320;48.804;9.252;2023-05-07T08:07:48;22.40;54.20
70734;DHT22;58320;48.804;9.252;2023-05-07T08:10:18;22.50;54.40
70734;DHT22;58320;48.804;9.252;2023-05-07T08:12:48;22.50;53.80
70734;DHT22;58320;48.804;9.252;2023-05-07T08:15:14;22.50;54.00
70734;DHT22;58320;48.804;9.252;2023-05-07T08:17:40;22.60;54.00
70734;DHT22;58320;48.804;9.252;2023-05-07T08:20:07;22.30;54.40
70734;DHT22;58320;48.804;9.252;2023-05-07T08:22:34;22.30;54.00
70734;DHT22;58320;48.804;9.252;2023-05-07T08:25:00;22.10;53.90
70734;DHT22;58320;48.804;9.252;2023-05-07T08:27:26;22.00;55.00
70734;DHT22;58320;48.804;9.252;2023-05-07T08:29:53;22.10;54.90
70734;DHT22;58320;48.804;9.252;2023-05-07T08:32:19;22.20;54.50
70734;DHT22;58320;48.804;9.252;2023-05-07T08:34:45;22.20;55.60
70734;DHT22;58320;48.804;9.252;2023-05-07T08:37:10;22.40;54.20
70734;DHT22;58320;48.804;9.252;2023-05-07T08:39:36;22.50;53.00
70734;DHT22;58320;48.804;9.252;2023-05-07T08:42:03;22.40;52.10
70734;DHT22;58320;48.804;9.252;2023-05-07T08:44:33;22.30;52.90
70734;DHT22;58320;48.804;9.252;2023-05-07T08:47:03;22.00;54.10
70734;DHT22;58320;48.804;9.252;2023-05-07T08:49:33;21.80;55.00
70734;DHT22;58320;48.804;9.252;2023-05-07T08:52:00;21.60;55.50
70734;DHT22;58320;48.804;9.252;2023-05-07T08:54:26;21.70;55.70
70734;DHT22;58320;48.804;9.252;2023-05-07T08:56:53;21.80;54.30
70734;DHT22;58320;48.804;9.252;2023-05-07T08:59:19;21.80;53.80
70734;DHT22;58320;48.804;9.252;2023-05-07T09:01:44;21.90;53.90
70734;DHT22;58320;48.804;9.252;2023-05-07T09:04:10;22.00;54.80
70734;DHT22;58320;48.804;9.252;2023-05-07T09:06:37;22.10;54.30
70734;DHT22;58320;48.804;9.252;2023-05-07T09:09:07;22.30;53.80
70734;DHT22;58320;48.804;9.252;2023-05-07T09:11:33;22.70;54.30
70734;DHT22;58320;48.804;9.252;2023-05-07T09:13:59;23.00;52.00
70734;DHT22;58320;48.804;9.252;2023-05-07T09:16:28;23.30;52.30
70734;DHT22;58320;48.804;9.252;2023-05-07T09:18:57;23.40;50.70
70734;DHT22;58320;48.804;9.252;2023-05-07T09:21:23;23.40;49.40
70734;DHT22;58320;48.804;9.252;2023-05-07T09:23:53;23.40;50.10
70734;DHT22;58320;48.804;9.252;2023-05-07T09:26:24;23.70;49.80
70734;DHT22;58320;48.804;9.252;2023-05-07T09:28:50;23.70;50.80
70734;DHT22;58320;48.804;9.252;2023-05-07T09:31:17;23.70;49.70
70734;DHT22;58320;48.804;9.252;2023-05-07T09:33:43;23.80;50.20
70734;DHT22;58320;48.804;9.252;2023-05-07T09:36:09;23.70;48.50
70734;DHT22;58320;48.804;9.252;2023-05-07T09:38:37;23.70;48.90
70734;DHT22;58320;48.804;9.252;2023-05-07T09:41:07;23.80;48.70
70734;DHT22;58320;48.804;9.252;2023-05-07T09:43:36;23.80;49.20
70734;DHT22;58320;48.804;9.252;2023-05-07T09:46:14;23.80;49.30
70734;DHT22;58320;48.804;9.252;2023-05-07T09:48:42;24.00;47.30
70734;DHT22;58320;48.804;9.252;2023-05-07T09:51:24;24.10;48.90
70734;DHT22;58320;48.804;9.252;2023-05-07T09:53:53;24.20;48.20
70734;DHT22;58320;48.804;9.252;2023-05-07T09:56:19;24.60;47.70
70734;DHT22;58320;48.804;9.252;2023-05-07T09:58:46;24.70;46.90
70734;DHT22;58320;48.804;9.252;2023-05-07T10:01:12;24.90;47.00
70734;DHT22;58320;48.804;9.252;2023-05-07T10:03:41;25.00;46.10
70734;DHT22;58320;48.804;9.252;2023-05-07T10:06:09;24.90;46.40
70734;DHT22;58320;48.804;9.252;2023-05-07T10:08:36;24.80;46.90
70734;DHT22;58320;48.804;9.252;2023-05-07T10:11:06;24.70;46.90
70734;DHT22;58320;48.804;9.252;2023-05-07T10:13:33;24.90;46.20
70734;DHT22;58320;48.804;9.252;2023-05-07T10:16:04;24.90;45.30
70734;DHT22;58320;48.804;9.252;2023-05-07T10:18:31;24.90;46.30
70734;DHT22;58320;48.804;9.252;2023-05-07T10:21:11;25.20;46.10
70734;DHT22;58320;48.804;9.252;2023-05-07T10:23:38;25.50;45.30
70734;DHT22;58320;48.804;9.252;2023-05-07T10:26:06;25.60;44.70
70734;DHT22;58320;48.804;9.252;2023-05-07T10:28:36;25.80;45.60
70734;DHT22;58320;48.804;9.252;2023-05-07T10:33:54;26.00;44.80
70734;DHT22;58320;48.804;9.252;2023-05-07T10:36:22;26.10;43.80
70734;DHT22;58320;48.804;9.252;2023-05-07T10:38:48;26.20;44.00
70734;DHT22;58320;48.804;9.252;2023-05-07T10:41:14;26.40;43.80
70734;DHT22;58320;48.804;9.252;2023-05-07T10:43:43;26.70;43.70
70734;DHT22;58320;48.804;9.252;2023-05-07T10:46:13;27.00;42.40
70734;DHT22;58320;48.804;9.252;2023-05-07T10:51:34;28.20;40.50
70734;DHT22;58320;48.804;9.252;2023-05-07T10:56:35;28.00;40.90
70734;DHT22;58320;48.804;9.252;2023-05-07T11:02:04;27.50;41.70
70734;DHT22;58320;48.804;9.252;2023-05-07T11:04:33;27.30;42.50
70734;DHT22;58320;48.804;9.252;2023-05-07T11:10:00;27.60;42.90
70734;DHT22;58320;48.804;9.252;2023-05-07T11:15:14;28.50;40.10
70734;DHT22;58320;48.804;9.252;2023-05-07T11:17:54;28.60;40.90
70734;DHT22;58320;48.804;9.252;2023-05-07T11:20:43;29.00;40.30
70734;DHT22;58320;48.804;9.252;2023-05-07T11:26:06;29.60;37.80
70734;DHT22;58320;48.804;9.252;2023-05-07T11:28:40;29.40;38.80
70734;DHT22;58320;48.804;9.252;2023-05-07T11:31:07;29.00;38.00
70734;DHT22;58320;48.804;9.252;2023-05-07T11:33:34;28.50;39.60
70734;DHT22;58320;48.804;9.252;2023-05-07T11:36:03;28.20;39.70
70734;DHT22;58320;48.804;9.252;2023-05-07T11:38:38;27.70;40.90
70734;DHT22;58320;48.804;9.252;2023-05-07T11:41:05;27.50;42.30
70734;DHT22;58320;48.804;9.252;2023-05-07T11:43:31;27.40;41.50
70734;DHT22;58320;48.804;9.252;2023-05-07T11:46:11;27.10;41.50
70734;DHT22;58320;48.804;9.252;2023-05-07T11:48:38;26.90;42.60
70734;DHT22;58320;48.804;9.252;2023-05-07T11:51:05;26.80;41.70
70734;DHT22;58320;48.804;9.252;2023-05-07T11:53:41;26.50;41.90
70734;DHT22;58320;48.804;9.252;2023-05-07T11:56:09;26.20;41.60
70734;DHT22;58320;48.804;9.252;2023-05-07T11:58:36;25.90;42.90
70734;DHT22;58320;48.804;9.252;2023-05-07T12:01:02;25.80;43.10
70734;DHT22;58320;48.804;9.252;2023-05-07T12:03:28;25.60;43.40
70734;DHT22;58320;48.804;9.252;2023-05-07T12:05:54;25.40;43.00
70734;DHT22;58320;48.804;9.252;2023-05-07T12:08:21;25.10;43.60
70734;DHT22;58320;48.804;9.252;2023-05-07T12:10:49;24.80;46.10
70734;DHT22;58320;48.804;9.252;2023-05-07T12:13:20;24.60;46.40
70734;DHT22;58320;48.804;9.252;2023-05-07T12:15:50;24.20;49.20
70734;DHT22;58320;48.804;9.252;2023-05-07T12:18:16;23.80;53.90
70734;DHT22;58320;48.804;9.252;2023-05-07T12:20:42;23.30;54.00
70734;DHT22;58320;48.804;9.252;2023-05-07T12:23:09;23.00;54.50
70734;DHT22;58320;48.804;9.252;2023-05-07T12:25:42;22.60;55.80
70734;DHT22;58320;48.804;9.252;2023-05-07T12:28:17;22.20;55.90
70734;DHT22;58320;48.804;9.252;2023-05-07T12:30:44;21.90;56.90
70734;DHT22;58320;48.804;9.252;2023-05-07T12:33:11;21.70;57.50
70734;DHT22;58320;48.804;9.252;2023-05-07T12:35:42;21.60;59.70
70734;DHT22;58320;48.804;9.252;2023-05-07T12:38:13;21.60;58.60
70734;DHT22;58320;48.804;9.252;2023-05-07T12:40:48;21.50;61.00
70734;DHT22;58320;48.804;9.252;2023-05-07T12:43:25;21.40;60.10
70734;DHT22;58320;48.804;9.252;2023-05-07T12:45:54;21.10;61.70
70734;DHT22;58320;48.804;9.252;2023-05-07T12:48:22;20.50;68.40
70734;DHT22;58320;48.804;9.252;2023-05-07T12:50:55;19.70;69.80
70734;DHT22;58320;48.804;9.252;2023-05-07T12:53:23;19.30;73.80
70734;DHT22;58320;48.804;9.252;2023-05-07T12:55:58;19.10;73.70
70734;DHT22;58320;48.804;9.252;2023-05-07T12:58:30;19.00;74.00
70734;DHT22;58320;48.804;9.252;2023-05-07T13:01:00;18.90;78.00
70734;DHT22;58320;48.804;9.252;2023-05-07T13:03:35;18.80;75.90
70734;DHT22;58320;48.804;9.252;2023-05-07T13:06:04;18.60;75.90
70734;DHT22;58320;48.804;9.252;2023-05-07T13:08:36;18.10;76.90
70734;DHT22;58320;48.804;9.252;2023-05-07T13:11:07;17.50;78.80
70734;DHT22;58320;48.804;9.252;2023-05-07T13:13:35;16.90;84.00
70734;DHT22;58320;48.804;9.252;2023-05-07T13:16:02;16.60;92.30
70734;DHT22;58320;48.804;9.252;2023-05-07T13:18:32;16.30;91.20
70734;DHT22;58320;48.804;9.252;2023-05-07T13:20:59;16.00;89.70
70734;DHT22;58320;48.804;9.252;2023-05-07T13:23:26;15.70;91.60
70734;DHT22;58320;48.804;9.252;2023-05-07T13:25:52;15.50;90.60
70734;DHT22;58320;48.804;9.252;2023-05-07T13:28:19;15.50;88.90
70734;DHT22;58320;48.804;9.252;2023-05-07T13:30:46;15.60;89.60
70734;DHT22;58320;48.804;9.252;2023-05-07T13:33:12;15.60;87.50
70734;DHT22;58320;48.804;9.252;2023-05-07T13:35:38;15.40;85.60
70734;DHT22;58320;48.804;9.252;2023-05-07T13:38:04;15.30;78.20
70734;DHT22;58320;48.804;9.252;2023-05-07T13:40:30;15.50;75.80
70734;DHT22;58320;48.804;9.252;2023-05-07T13:43:00;15.30;73.90
70734;DHT22;58320;48.804;9.252;2023-05-07T13:45:28;15.30;81.20
70734;DHT22;58320;48.804;9.252;2023-05-07T13:47:55;15.10;81.90
70734;DHT22;58320;48.804;9.252;2023-05-07T13:50:21;14.90;84.10
70734;DHT22;58320;48.804;9.252;2023-05-07T13:52:47;14.80;84.90
70734;DHT22;58320;48.804;9.252;2023-05-07T13:55:20;14.70;87.60
70734;DHT22;58320;48.804;9.252;2023-05-07T13:57:47;14.70;88.20
70734;DHT22;58320;48.804;9.252;2023-05-07T14:00:13;14.70;91.70
70734;DHT22;58320;48.804;9.252;2023-05-07T14:02:40;14.70;93.20
70734;DHT22;58320;48.804;9.252;2023-05-07T14:05:06;14.70;93.20
70734;DHT22;58320;48.804;9.252;2023-05-07T14:07:33;14.70;94.50
70734;DHT22;58320;48.804;9.252;2023-05-07T14:09:59;14.70;96.20
70734;DHT22;58320;48.804;9.252;2023-05-07T14:12:25;14.80;97.20
70734;DHT22;58320;48.804;9.252;2023-05-07T14:14:50;14.90;99.90
70734;DHT22;58320;48.804;9.252;2023-05-07T14:17:17;14.80;99.90
70734;DHT22;58320;48.804;9.252;2023-05-07T14:19:43;14.70;98.70
70734;DHT22;58320;48.804;9.252;2023-05-07T14:22:09;14.70;99.90
70734;DHT22;58320;48.804;9.252;2023-05-07T14:24:35;14.60;99.40
70734;DHT22;58320;48.804;9.252;2023-05-07T14:27:01;14.60;98.50
70734;DHT22;58320;48.804;9.252;2023-05-07T14:29:28;14.60;99.90
70734;DHT22;58320;48.804;9.252;2023-05-07T14:31:53;14.50;99.90
70734;DHT22;58320;48.804;9.252;2023-05-07T14:34:19;14.50;99.90
70734;DHT22;58320;48.804;9.252;2023-05-07T14:36:45;14.50;99.50
70734;DHT22;58320;48.804;9.252;2023-05-07T14:39:11;14.60;99.90
70734;DHT22;58320;48.804;9.252;2023-05-07T14:41:37;14.70;99.90
70734;DHT22;58320;48.804;9.252;2023-05-07T14:44:03;14.80;99.90
70734;DHT22;58320;48.804;9.252;2023-05-07T14:46:29;14.90;98.70
70734;DHT22;58320;48.804;9.252;2023-05-07T14:48:57;15.00;99.90
70734;DHT22;58320;48.804;9.252;2023-05-07T14:51:22;14.90;98.90
70734;DHT22;58320;48.804;9.252;2023-05-07T14:53:50;14.90;99.90
70734;DHT22;58320;48.804;9.252;2023-05-07T14:56:16;15.00;99.90
70734;DHT22;58320;48.804;9.252;2023-05-07T14:58:42;15.10;99.90
70734;DHT22;58320;48.804;9.252;2023-05-07T15:01:09;15.10;99.10
70734;DHT22;58320;48.804;9.252;2023-05-07T15:03:34;15.10;98.50
70734;DHT22;58320;48.804;9.252;2023-05-07T15:06:01;15.10;98.40
70734;DHT22;58320;48.804;9.252;2023-05-07T15:08:28;15.20;99.60
70734;DHT22;58320;48.804;9.252;2023-05-07T15:10:54;15.30;99.90
70734;DHT22;58320;48.804;9.252;2023-05-07T15:13:20;15.40;99.90
70734;DHT22;58320;48.804;9.252;2023-05-07T15:15:46;15.50;99.20
70734;DHT22;58320;48.804;9.252;2023-05-07T15:18:12;15.50;97.80
70734;DHT22;58320;48.804;9.252;2023-05-07T15:20:40;15.50;96.70
70734;DHT22;58320;48.804;9.252;2023-05-07T15:23:07;15.50;94.80
70734;DHT22;58320;48.804;9.252;2023-05-07T15:25:39;15.50;93.70
70734;DHT22;58320;48.804;9.252;2023-05-07T15:28:05;15.60;94.60
70734;DHT22;58320;48.804;9.252;2023-05-07T15:30:31;15.70;95.90
70734;DHT22;58320;48.804;9.252;2023-05-07T15:32:57;15.80;97.50
70734;DHT22;58320;48.804;9.252;2023-05-07T15:35:22;16.00;97.70
70734;DHT22;58320;48.804;9.252;2023-05-07T15:37:49;16.10;97.10
70734;DHT22;58320;48.804;9.252;2023-05-07T15:40:15;16.20;97.00
70734;DHT22;58320;48.804;9.252;2023-05-07T15:42:41;16.40;95.10
70734;DHT22;58320;48.804;9.252;2023-05-07T15:45:07;16.50;93.90
70734;DHT22;58320;48.804;9.252;2023-05-07T15:47:34;16.50;93.80